Terminal Aerodrome Forecast
Issued by NWS

Home | Current Version | Previous Version | Graphics & Text | Print | Product List | Glossary On
Versions: 1 2 3 4 5 6 7 8 9 10 11 12 13 14 15 16 17 18 19 20 21 22 23 24 25 26 27 28 29 30 31
000
FTUS43 KGRB 261138
TAFRHI
TAF
KRHI 261138Z 2612/2712 31004KT P6SM FEW015 SCT025
      TEMPO 2612/2613 5SM BR SCT025
     FM261300 32004KT 6SM BR SCT015 BKN030
      TEMPO 2613/2615 SCT030
     FM261500 32005KT P6SM BKN025
     FM262000 31006KT P6SM SCT030
     FM270100 VRB03KT P6SM SKC
     FM270800 00000KT 3SM BR SKC
      TEMPO 2708/2712 1SM BR BKN002=

USA.gov is the U.S. government's official web portal to all federal, state and local government web resources and services.